Portada
METAR-TAF:

METAR-TAF

Aeroports :

Buffalo Municipal Airport

Buffalo, Minnesota, Estats Units d'Amèrica

latitud: 45-09-32N, longitud: 093-50-35W, altitud: 295 m

Observació

L'informe es va fer fa 8 minuts, a les 18:15 UTC
Vent 7 kt del Sud/Sud-Oest
Temperatura 29°C
Humitat 48%
Pressió 1008 hPa
Visibilitat: 16.1 km
Núvols disperses a una alçada de 6000 ft
Núvols disperses a una alçada de 7000 ft

METAR: KCFE 251815Z AUTO 20007KT 10SM SCT060 SCT070 29/17 A2976 RMK AO2 T02870172

Hora: 13:23 (18:23 UTC)


TAF: manca

Observacions i pronòstics meteorològics de més de 4000 aeroports (METAR i TAF).

Les estacions disponibles són els punts grocs i vermells al mapa.

Posi el ratolí al punt desitjat per veure el nom de l'estació.

Feu clic per veure les observacions i els pronòstics meteorològics.

Per canviar el mapa: feu clic els botons verds amb una creu de color negre per apropar; al botó verd amb un guió per allunyar la imatge; o en les fletxes verdes per a mapes adjacents.


METAR-TAF: